createdAt,value
2016-12-26T00:00:01.469Z,1006.39
2016-12-26T00:01:01.485Z,1006.54
2016-12-26T00:02:01.500Z,1006.4
2016-12-26T00:03:01.520Z,1006.39
2016-12-26T00:04:01.535Z,1006.46
2016-12-26T00:05:01.546Z,1006.45
2016-12-26T00:06:01.563Z,1006.37
2016-12-26T00:07:01.584Z,1006.39
2016-12-26T00:08:01.599Z,1006.38
2016-12-26T00:09:01.619Z,1006.41
2016-12-26T00:10:01.635Z,1006.28
2016-12-26T00:11:01.648Z,1006.41
2016-12-26T00:12:01.665Z,1006.26
2016-12-26T00:13:01.679Z,1006.35
2016-12-26T00:14:01.699Z,1006.32
2016-12-26T00:15:01.712Z,1006.37
2016-12-26T00:16:01.732Z,1006.37
2016-12-26T00:17:01.750Z,1006.37
2016-12-26T00:18:01.766Z,1006.33
2016-12-26T00:19:01.780Z,1006.38
2016-12-26T00:20:01.797Z,1006.35
2016-12-26T00:21:01.814Z,1006.28
2016-12-26T00:22:01.831Z,1006.28
2016-12-26T00:23:01.845Z,1006.28
2016-12-26T00:24:01.864Z,1006.24
2016-12-26T00:25:01.878Z,1006.27
2016-12-26T00:26:01.897Z,1006.2
2016-12-26T00:27:01.910Z,1006.25
2016-12-26T00:28:01.928Z,1006.17
2016-12-26T00:29:01.944Z,1006.25
2016-12-26T00:30:01.962Z,1006.25
2016-12-26T00:31:01.978Z,1006.27
2016-12-26T00:32:01.996Z,1006.25
2016-12-26T00:33:02.013Z,1006.27
2016-12-26T00:34:02.026Z,1006.24
2016-12-26T00:35:02.047Z,1006.25
2016-12-26T00:36:02.060Z,1006.27
2016-12-26T00:37:02.076Z,1006.27
2016-12-26T00:38:02.094Z,1006.31
2016-12-26T00:39:02.110Z,1006.32
2016-12-26T00:40:02.123Z,1006.24
2016-12-26T00:41:02.142Z,1006.27
2016-12-26T00:42:02.157Z,1006.25
2016-12-26T00:43:02.173Z,1006.27
2016-12-26T00:44:02.191Z,1006.27
2016-12-26T00:45:02.208Z,1006.37
2016-12-26T00:46:02.222Z,1006.26
2016-12-26T00:47:02.239Z,1006.29
2016-12-26T00:48:02.257Z,1006.28
2016-12-26T00:49:02.272Z,1006.3
2016-12-26T00:50:02.286Z,1006.24
2016-12-26T00:51:02.303Z,1006.25
2016-12-26T00:52:02.323Z,1006.19
2016-12-26T00:53:02.336Z,1006.24
2016-12-26T00:54:02.352Z,1006.25
2016-12-26T00:55:02.369Z,1006.19
2016-12-26T00:56:02.385Z,1006.25
2016-12-26T00:57:02.403Z,1006.17
2016-12-26T00:58:02.418Z,1006.18
2016-12-26T00:59:02.436Z,1006.21
2016-12-26T01:00:02.454Z,1006.15
2016-12-26T01:01:02.467Z,1006.13
2016-12-26T01:02:02.489Z,1006.21
2016-12-26T01:03:02.501Z,1006.22
2016-12-26T01:04:02.514Z,1006.19
2016-12-26T01:05:02.534Z,1006.15
2016-12-26T01:06:02.552Z,1006.15
2016-12-26T01:07:02.565Z,1006.15
2016-12-26T01:08:02.580Z,1006.21
2016-12-26T01:09:02.599Z,1006.18
2016-12-26T01:10:02.615Z,1006.18
2016-12-26T01:11:02.632Z,1006.19
2016-12-26T01:12:02.649Z,1006.24
2016-12-26T01:13:02.665Z,1006.2
2016-12-26T01:14:02.682Z,1006.22
2016-12-26T01:15:02.700Z,1006.24
2016-12-26T01:16:02.712Z,1006.22
2016-12-26T01:17:02.733Z,1006.2
2016-12-26T01:18:02.745Z,1006.2
2016-12-26T01:19:02.761Z,1006.22
2016-12-26T01:20:02.780Z,1006.28
2016-12-26T01:21:02.798Z,1006.21
2016-12-26T01:22:02.811Z,1006.25
2016-12-26T01:23:02.830Z,1006.21
2016-12-26T01:24:02.845Z,1006.23
2016-12-26T01:25:02.857Z,1006.25
2016-12-26T01:26:02.877Z,1006.29
2016-12-26T01:27:02.893Z,1006.32
2016-12-26T01:28:02.909Z,1006.32
2016-12-26T01:29:02.925Z,1006.28
2016-12-26T01:30:02.945Z,1006.28
2016-12-26T01:31:02.959Z,1006.28
2016-12-26T01:32:02.972Z,1006.3
2016-12-26T01:33:02.989Z,1006.25
2016-12-26T01:34:03.006Z,1006.28
2016-12-26T01:35:03.023Z,1006.23
2016-12-26T01:36:03.041Z,1006.26
2016-12-26T01:37:03.060Z,1006.24
2016-12-26T01:38:03.079Z,1006.25
2016-12-26T01:39:03.089Z,1006.27
2016-12-26T01:40:03.107Z,1006.22
2016-12-26T01:41:03.121Z,1006.25
2016-12-26T01:42:03.139Z,1006.24
2016-12-26T01:43:03.157Z,1006.25
2016-12-26T01:44:03.174Z,1006.31
2016-12-26T01:45:03.185Z,1006.26
2016-12-26T01:46:03.205Z,1006.2
2016-12-26T01:47:03.222Z,1006.19
2016-12-26T01:48:03.235Z,1006.19
2016-12-26T01:49:03.252Z,1006.2
2016-12-26T01:50:03.268Z,1006.18
2016-12-26T01:51:03.288Z,1006.24
2016-12-26T01:52:03.304Z,1006.06
2016-12-26T01:53:03.319Z,1006.16
2016-12-26T01:54:03.335Z,1006.16
2016-12-26T01:55:03.354Z,1006.06
2016-12-26T01:56:03.366Z,1006.1
2016-12-26T01:57:03.382Z,1006.05
2016-12-26T01:58:03.400Z,1006.01
2016-12-26T01:59:03.420Z,1006.05
2016-12-26T02:00:03.433Z,1006.05
2016-12-26T02:01:03.454Z,1006.08
2016-12-26T02:02:03.467Z,1006.07
2016-12-26T02:03:03.483Z,1006.01
2016-12-26T02:04:03.502Z,1006.05
2016-12-26T02:05:03.515Z,1005.99
2016-12-26T02:06:03.535Z,1006.08
2016-12-26T02:07:03.558Z,1006.06
2016-12-26T02:08:03.568Z,1006.05
2016-12-26T02:09:03.584Z,1006.08
2016-12-26T02:10:03.599Z,1005.99
2016-12-26T02:11:03.616Z,1005.93
2016-12-26T02:12:03.631Z,1006.03
2016-12-26T02:13:03.650Z,1005.98
2016-12-26T02:14:03.667Z,1005.98
2016-12-26T02:15:03.686Z,1005.95
2016-12-26T02:16:03.696Z,1005.97
2016-12-26T02:17:03.713Z,1006.02
2016-12-26T02:18:03.730Z,1005.97
2016-12-26T02:19:03.745Z,1005.97
2016-12-26T02:20:03.764Z,1005.92
2016-12-26T02:21:03.778Z,1005.97
2016-12-26T02:22:03.796Z,1005.94
2016-12-26T02:23:03.811Z,1005.96
2016-12-26T02:24:03.828Z,1005.96
2016-12-26T02:25:03.844Z,1005.9
2016-12-26T02:26:03.866Z,1005.93
2016-12-26T02:27:03.876Z,1005.9
2016-12-26T02:28:03.895Z,1005.87
2016-12-26T02:29:03.908Z,1005.93
2016-12-26T02:30:03.928Z,1005.87
2016-12-26T02:31:03.944Z,1005.82
2016-12-26T02:32:03.959Z,1005.86
2016-12-26T02:33:03.977Z,1005.87
2016-12-26T02:34:03.990Z,1005.83
2016-12-26T02:35:04.012Z,1005.84
2016-12-26T02:36:04.023Z,1005.81
2016-12-26T02:37:04.039Z,1005.75
2016-12-26T02:38:04.059Z,1005.75
2016-12-26T02:39:04.075Z,1005.75
2016-12-26T02:40:04.092Z,1005.78
2016-12-26T02:41:04.108Z,1005.69
2016-12-26T02:42:04.124Z,1005.75
2016-12-26T02:43:04.139Z,1005.76
2016-12-26T02:44:04.156Z,1005.8
2016-12-26T02:45:04.172Z,1005.75
2016-12-26T02:46:04.189Z,1005.82
2016-12-26T02:47:04.202Z,1005.76
2016-12-26T02:48:04.225Z,1005.83
2016-12-26T02:49:04.239Z,1005.75
2016-12-26T02:50:04.257Z,1005.7
2016-12-26T02:51:04.269Z,1005.78
2016-12-26T02:52:04.289Z,1005.79
2016-12-26T02:53:04.301Z,1005.77
2016-12-26T02:54:04.319Z,1005.75
2016-12-26T02:55:04.336Z,1005.71
2016-12-26T02:56:04.350Z,1005.68
2016-12-26T02:57:04.369Z,1005.71
2016-12-26T02:58:04.388Z,1005.65
2016-12-26T02:59:04.404Z,1005.61
2016-12-26T03:00:04.416Z,1005.72
2016-12-26T03:01:04.434Z,1005.66
2016-12-26T03:02:04.446Z,1005.6
2016-12-26T03:03:04.468Z,1005.67
2016-12-26T03:04:04.482Z,1005.73
2016-12-26T03:05:04.497Z,1005.63
2016-12-26T03:06:04.517Z,1005.66
2016-12-26T03:07:04.531Z,1005.78
2016-12-26T03:08:04.548Z,1005.82
2016-12-26T03:09:04.565Z,1005.78
2016-12-26T03:10:04.581Z,1005.77
2016-12-26T03:11:04.596Z,1005.8
2016-12-26T03:12:04.615Z,1005.74
2016-12-26T03:13:04.629Z,1005.77
2016-12-26T03:14:04.646Z,1005.77
2016-12-26T03:15:04.665Z,1005.76
2016-12-26T03:16:04.682Z,1005.73
2016-12-26T03:17:04.699Z,1005.76
2016-12-26T03:18:04.710Z,1005.8
2016-12-26T03:19:04.726Z,1005.73
2016-12-26T03:20:04.747Z,1005.82
2016-12-26T03:21:04.761Z,1005.68
2016-12-26T03:22:04.779Z,1005.67
2016-12-26T03:23:04.794Z,1005.67
2016-12-26T03:24:04.810Z,1005.62
2016-12-26T03:25:04.831Z,1005.67
2016-12-26T03:26:04.847Z,1005.78
2016-12-26T03:27:04.857Z,1005.62
2016-12-26T03:28:04.885Z,1005.64
2016-12-26T03:29:04.896Z,1005.65
2016-12-26T03:30:04.907Z,1005.58
2016-12-26T03:31:04.927Z,1005.61
2016-12-26T03:32:04.945Z,1005.52
2016-12-26T03:33:04.961Z,1005.55
2016-12-26T03:34:04.978Z,1005.56
2016-12-26T03:35:04.992Z,1005.47
2016-12-26T03:36:05.007Z,1005.46
2016-12-26T03:37:05.022Z,1005.46
2016-12-26T03:38:05.056Z,1005.47
2016-12-26T03:39:05.057Z,1005.41
2016-12-26T03:40:05.072Z,1005.48
2016-12-26T03:41:05.092Z,1005.55
2016-12-26T03:42:05.106Z,1005.48
2016-12-26T03:43:05.128Z,1005.39
2016-12-26T03:44:05.138Z,1005.42
2016-12-26T03:45:05.154Z,1005.47
2016-12-26T03:46:05.173Z,1005.44
2016-12-26T03:47:05.194Z,1005.42
2016-12-26T03:48:05.206Z,1005.42
2016-12-26T03:49:05.224Z,1005.38
2016-12-26T03:50:05.241Z,1005.43
2016-12-26T03:51:05.255Z,1005.37
2016-12-26T03:52:05.272Z,1005.39
2016-12-26T03:53:05.290Z,1005.39
2016-12-26T03:54:05.304Z,1005.4
2016-12-26T03:55:05.323Z,1005.45
2016-12-26T03:56:05.340Z,1005.26
2016-12-26T03:57:05.358Z,1005.34
2016-12-26T03:58:05.371Z,1005.44
2016-12-26T03:59:05.390Z,1005.39
2016-12-26T04:02:05.454Z,1005.32
2016-12-26T04:03:05.459Z,1005.36
2016-12-26T04:04:05.475Z,1005.36
2016-12-26T04:05:05.491Z,1005.35
2016-12-26T04:06:05.509Z,1005.28
2016-12-26T04:07:05.534Z,1005.21
2016-12-26T04:08:05.543Z,1005.29
2016-12-26T04:09:05.556Z,1005.31
2016-12-26T04:10:05.573Z,1005.24
2016-12-26T04:11:05.593Z,1005.19
2016-12-26T04:12:05.606Z,1005.22
2016-12-26T04:13:05.625Z,1005.15
2016-12-26T04:14:05.642Z,1005.18
2016-12-26T04:15:05.661Z,1005.2
2016-12-26T04:16:05.676Z,1005.11
2016-12-26T04:17:05.691Z,1005.18
2016-12-26T04:18:05.704Z,1005.22
2016-12-26T04:19:05.725Z,1005.18
2016-12-26T04:20:05.739Z,1005.24
2016-12-26T04:21:05.755Z,1005.16
2016-12-26T04:22:05.772Z,1005.14
2016-12-26T04:23:05.790Z,1005.15
2016-12-26T04:24:05.807Z,1005.14
2016-12-26T04:25:05.823Z,1005.12
2016-12-26T04:26:05.836Z,1005.14
2016-12-26T04:27:05.853Z,1005.19
2016-12-26T04:28:05.890Z,1005.17
2016-12-26T04:29:05.890Z,1005.13
2016-12-26T04:30:05.904Z,1005.11
2016-12-26T04:31:05.923Z,1005.08
2016-12-26T04:32:05.941Z,1005.05
2016-12-26T04:33:05.955Z,1005.07
2016-12-26T04:34:05.975Z,1005.04
2016-12-26T04:35:05.987Z,1005.07
2016-12-26T04:36:06.005Z,1005.02
2016-12-26T04:37:06.019Z,1005.09
2016-12-26T04:38:06.040Z,1005.04
2016-12-26T04:39:06.053Z,1005.07
2016-12-26T04:40:06.070Z,1005
2016-12-26T04:41:06.088Z,1004.99
2016-12-26T04:42:06.103Z,1004.97
2016-12-26T04:43:06.119Z,1005
2016-12-26T04:44:06.137Z,1004.98
2016-12-26T04:45:06.153Z,1005.03
2016-12-26T04:46:06.169Z,1004.96
2016-12-26T04:47:06.185Z,1005.01
2016-12-26T04:48:06.205Z,1005.01
2016-12-26T04:49:06.221Z,1004.98
2016-12-26T04:50:06.234Z,1005.01
2016-12-26T04:51:06.253Z,1004.98
2016-12-26T04:52:06.269Z,1005.08
2016-12-26T04:53:06.283Z,1005.03
2016-12-26T04:54:06.300Z,1005.04
2016-12-26T04:55:06.320Z,1004.98
2016-12-26T04:56:06.333Z,1005.01
2016-12-26T04:57:06.350Z,1004.89
2016-12-26T04:58:06.367Z,1005
2016-12-26T04:59:06.387Z,1005.03
2016-12-26T05:00:06.404Z,1005
2016-12-26T05:01:06.419Z,1005.02
2016-12-26T05:02:06.433Z,1004.96
2016-12-26T05:03:06.448Z,1004.98
2016-12-26T05:04:06.468Z,1004.95
2016-12-26T05:05:06.485Z,1004.93
2016-12-26T05:06:06.502Z,1004.92
2016-12-26T05:07:06.518Z,1004.86
2016-12-26T05:08:06.533Z,1004.9
2016-12-26T05:09:06.550Z,1004.93
2016-12-26T05:10:06.563Z,1004.85
2016-12-26T05:11:06.579Z,1004.83
2016-12-26T05:12:06.598Z,1004.94
2016-12-26T05:13:06.615Z,1004.85
2016-12-26T05:14:06.632Z,1004.82
2016-12-26T05:15:06.650Z,1004.78
2016-12-26T05:16:06.668Z,1004.78
2016-12-26T05:17:06.682Z,1004.79
2016-12-26T05:18:06.699Z,1004.9
2016-12-26T05:19:06.714Z,1004.86
2016-12-26T05:20:06.732Z,1004.87
2016-12-26T05:21:06.746Z,1004.81
2016-12-26T05:22:06.766Z,1004.8
2016-12-26T05:23:06.783Z,1004.74
2016-12-26T05:24:06.800Z,1004.8
2016-12-26T05:25:06.813Z,1004.78
2016-12-26T05:26:06.834Z,1004.86
2016-12-26T05:27:06.847Z,1004.82
2016-12-26T05:28:06.863Z,1004.76
2016-12-26T05:29:06.878Z,1004.82
2016-12-26T05:30:06.897Z,1004.78
2016-12-26T05:31:06.916Z,1004.83
2016-12-26T05:32:06.932Z,1004.8
2016-12-26T05:33:06.949Z,1004.82
2016-12-26T05:34:06.965Z,1004.82
2016-12-26T05:35:06.982Z,1004.88
2016-12-26T05:36:06.999Z,1004.79
2016-12-26T05:37:07.013Z,1004.82
2016-12-26T05:38:07.027Z,1004.89
2016-12-26T05:39:07.044Z,1004.89
2016-12-26T05:40:07.061Z,1004.75
2016-12-26T05:41:07.077Z,1004.82
2016-12-26T05:42:07.094Z,1004.86
2016-12-26T05:43:07.113Z,1004.82
2016-12-26T05:44:07.127Z,1004.78
2016-12-26T05:45:07.142Z,1004.79
2016-12-26T05:46:07.162Z,1004.73
2016-12-26T05:47:07.175Z,1004.77
2016-12-26T05:48:07.196Z,1004.8
2016-12-26T05:49:07.209Z,1004.79
2016-12-26T05:50:07.227Z,1004.71
2016-12-26T05:51:07.241Z,1004.76
2016-12-26T05:52:07.258Z,1004.72
2016-12-26T05:53:07.273Z,1004.71
2016-12-26T05:54:07.292Z,1004.73
2016-12-26T05:55:07.307Z,1004.7
2016-12-26T05:56:07.327Z,1004.71
2016-12-26T05:57:07.344Z,1004.65
2016-12-26T05:58:07.357Z,1004.73
2016-12-26T05:59:07.371Z,1004.72
2016-12-26T06:00:07.394Z,1004.71
2016-12-26T06:01:07.404Z,1004.69
2016-12-26T06:02:07.424Z,1004.69
2016-12-26T06:03:07.442Z,1004.64
2016-12-26T06:04:07.455Z,1004.8
2016-12-26T06:05:07.476Z,1004.65
2016-12-26T06:06:07.491Z,1004.63
2016-12-26T06:07:07.505Z,1004.56
2016-12-26T06:08:07.520Z,1004.57
2016-12-26T06:09:07.540Z,1004.57
2016-12-26T06:10:07.553Z,1004.56
2016-12-26T06:11:07.570Z,1004.53
2016-12-26T06:12:07.589Z,1004.49
2016-12-26T06:13:07.604Z,1004.5
2016-12-26T06:14:07.630Z,1004.59
2016-12-26T06:15:07.639Z,1004.49
2016-12-26T06:16:07.655Z,1004.45
2016-12-26T06:17:07.671Z,1004.46
2016-12-26T06:18:07.684Z,1004.51
2016-12-26T06:19:07.704Z,1004.46
2016-12-26T06:20:07.723Z,1004.48
2016-12-26T06:21:07.736Z,1004.45
2016-12-26T06:22:07.754Z,1004.53
2016-12-26T06:23:07.773Z,1004.38
2016-12-26T06:24:07.792Z,1004.58
2016-12-26T06:25:07.800Z,1004.55
2016-12-26T06:26:07.823Z,1004.46
2016-12-26T06:27:07.834Z,1004.44
2016-12-26T06:28:07.853Z,1004.49
2016-12-26T06:29:07.870Z,1004.51
2016-12-26T06:30:07.884Z,1004.59
2016-12-26T06:31:07.904Z,1004.38
2016-12-26T06:32:07.917Z,1004.47
2016-12-26T06:33:07.934Z,1004.46
2016-12-26T06:34:07.953Z,1004.5
2016-12-26T06:35:07.964Z,1004.48
2016-12-26T06:36:07.988Z,1004.45
2016-12-26T06:37:08.000Z,1004.42
2016-12-26T06:38:08.018Z,1004.52
2016-12-26T06:39:08.036Z,1004.49
2016-12-26T06:40:08.053Z,1004.47
2016-12-26T06:41:08.066Z,1004.39
2016-12-26T06:42:08.082Z,1004.4
2016-12-26T06:43:08.100Z,1004.44
2016-12-26T06:44:08.121Z,1004.45
2016-12-26T06:45:08.136Z,1004.38
2016-12-26T06:46:08.149Z,1004.36
2016-12-26T06:47:08.166Z,1004.45
2016-12-26T06:48:08.182Z,1004.4
2016-12-26T06:49:08.197Z,1004.39
2016-12-26T06:50:08.214Z,1004.53
2016-12-26T06:51:08.234Z,1004.39
2016-12-26T06:52:08.248Z,1004.46
2016-12-26T06:53:08.264Z,1004.37
2016-12-26T06:54:08.280Z,1004.36
2016-12-26T06:55:08.298Z,1004.42
2016-12-26T06:56:08.312Z,1004.41
2016-12-26T06:57:08.329Z,1004.42
2016-12-26T06:58:08.344Z,1004.34
2016-12-26T06:59:08.363Z,1004.41
2016-12-26T07:00:08.382Z,1004.38
2016-12-26T07:01:08.396Z,1004.4
2016-12-26T07:02:08.415Z,1004.41
2016-12-26T07:03:08.429Z,1004.39
2016-12-26T07:04:08.449Z,1004.33
2016-12-26T07:05:08.460Z,1004.43
2016-12-26T07:06:08.479Z,1004.36
2016-12-26T07:07:08.494Z,1004.38
2016-12-26T07:08:08.513Z,1004.25
2016-12-26T07:09:08.527Z,1004.29
2016-12-26T07:10:08.546Z,1004.26
2016-12-26T07:11:08.561Z,1004.29
2016-12-26T07:12:08.581Z,1004.32
2016-12-26T07:13:08.600Z,1004.39
2016-12-26T07:14:08.612Z,1004.4
2016-12-26T07:15:08.629Z,1004.41
2016-12-26T07:16:08.645Z,1004.47
2016-12-26T07:17:08.660Z,1004.46
2016-12-26T07:18:08.678Z,1004.38
2016-12-26T07:19:08.693Z,1004.42
2016-12-26T07:20:08.715Z,1004.4
2016-12-26T07:21:08.729Z,1004.35
2016-12-26T07:22:08.744Z,1004.45
2016-12-26T07:23:08.762Z,1004.46
2016-12-26T07:24:08.779Z,1004.47
2016-12-26T07:25:08.796Z,1004.43
2016-12-26T07:26:08.810Z,1004.51
2016-12-26T07:27:08.827Z,1004.44
2016-12-26T07:28:08.841Z,1004.55
2016-12-26T07:29:08.860Z,1004.56
2016-12-26T07:30:08.877Z,1004.59
2016-12-26T07:31:08.892Z,1004.57
2016-12-26T07:32:08.908Z,1004.58
2016-12-26T07:33:08.924Z,1004.52
2016-12-26T07:34:08.941Z,1004.49
2016-12-26T07:35:08.960Z,1004.48
2016-12-26T07:36:08.974Z,1004.51
2016-12-26T07:37:08.992Z,1004.48
2016-12-26T07:38:09.005Z,1004.51
2016-12-26T07:39:09.025Z,1004.49
2016-12-26T07:40:09.043Z,1004.54
2016-12-26T07:41:09.059Z,1004.51
2016-12-26T07:42:09.074Z,1004.53
2016-12-26T07:43:09.088Z,1004.48
2016-12-26T07:44:09.107Z,1004.44
2016-12-26T07:45:09.120Z,1004.44
2016-12-26T07:46:09.137Z,1004.52
2016-12-26T07:47:09.154Z,1004.38
2016-12-26T07:48:09.170Z,1004.43
2016-12-26T07:49:09.187Z,1004.48
2016-12-26T07:50:09.208Z,1004.53
2016-12-26T07:51:09.225Z,1004.48
2016-12-26T07:52:09.238Z,1004.4
2016-12-26T07:53:09.257Z,1004.41
2016-12-26T07:54:09.272Z,1004.48
2016-12-26T07:55:09.289Z,1004.41
2016-12-26T07:56:09.305Z,1004.38
2016-12-26T07:57:09.320Z,1004.42
2016-12-26T07:58:09.336Z,1004.45
2016-12-26T07:59:09.356Z,1004.35
2016-12-26T08:00:09.370Z,1004.44
2016-12-26T08:01:09.388Z,1004.27
2016-12-26T08:02:09.406Z,1004.31
2016-12-26T08:03:09.420Z,1004.35
2016-12-26T08:04:09.436Z,1004.35
2016-12-26T08:05:09.455Z,1004.42
2016-12-26T08:06:09.474Z,1004.37
2016-12-26T08:07:09.484Z,1004.36
2016-12-26T08:08:09.504Z,1004.35
2016-12-26T08:09:09.520Z,1004.4
2016-12-26T08:10:09.538Z,1004.46
2016-12-26T08:11:09.555Z,1004.4
2016-12-26T08:12:09.571Z,1004.4
2016-12-26T08:13:09.585Z,1004.38
2016-12-26T08:14:09.605Z,1004.41
2016-12-26T08:15:09.620Z,1004.47
2016-12-26T08:16:09.641Z,1004.4
2016-12-26T08:17:09.655Z,1004.43
2016-12-26T08:18:09.670Z,1004.38
2016-12-26T08:19:09.688Z,1004.46
2016-12-26T08:20:09.707Z,1004.46
2016-12-26T08:21:09.721Z,1004.43
2016-12-26T08:22:09.739Z,1004.41
2016-12-26T08:23:09.754Z,1004.38
2016-12-26T08:24:09.771Z,1004.44
2016-12-26T08:25:09.785Z,1004.34
2016-12-26T08:26:09.805Z,1004.3
2016-12-26T08:27:09.822Z,1004.39
2016-12-26T08:28:09.839Z,1004.36
2016-12-26T08:29:09.853Z,1004.33
2016-12-26T08:30:09.874Z,1004.39
2016-12-26T08:31:09.886Z,1004.43
2016-12-26T08:32:09.906Z,1004.41
2016-12-26T08:33:09.919Z,1004.41
2016-12-26T08:34:09.939Z,1004.29
2016-12-26T08:35:09.954Z,1004.35
2016-12-26T08:36:09.971Z,1004.4
2016-12-26T08:37:09.987Z,1004.29
2016-12-26T08:38:10.004Z,1004.39
2016-12-26T08:39:10.020Z,1004.32
2016-12-26T08:40:10.041Z,1004.33
2016-12-26T08:41:10.055Z,1004.45
2016-12-26T08:42:10.077Z,1004.35
2016-12-26T08:43:10.088Z,1004.26
2016-12-26T08:44:10.109Z,1004.25
2016-12-26T08:45:10.125Z,1004.27
2016-12-26T08:46:10.140Z,1004.31
2016-12-26T08:47:10.155Z,1004.22
2016-12-26T08:48:10.172Z,1004.23
2016-12-26T08:49:10.189Z,1004.27
2016-12-26T08:50:10.230Z,1004.26
2016-12-26T08:51:10.224Z,1004.31
2016-12-26T08:52:10.243Z,1004.3
2016-12-26T08:53:10.257Z,1004.32
2016-12-26T08:54:10.274Z,1004.34
2016-12-26T08:55:10.290Z,1004.28
2016-12-26T08:56:10.308Z,1004.22
2016-12-26T08:57:10.325Z,1004.26
2016-12-26T08:58:10.342Z,1004.31
2016-12-26T08:59:10.356Z,1004.29
2016-12-26T09:00:10.375Z,1004.35
2016-12-26T09:01:10.393Z,1004.32
2016-12-26T09:02:10.407Z,1004.33
2016-12-26T09:03:10.426Z,1004.28
2016-12-26T09:04:10.440Z,1004.35
2016-12-26T09:05:10.461Z,1004.24
2016-12-26T09:06:10.473Z,1004.27
2016-12-26T09:07:10.492Z,1004.46
2016-12-26T09:08:10.507Z,1004.37
2016-12-26T09:09:10.525Z,1004.35
2016-12-26T09:10:10.545Z,1004.32
2016-12-26T09:11:10.562Z,1004.36
2016-12-26T09:12:10.576Z,1004.4
2016-12-26T09:13:10.592Z,1004.35
2016-12-26T09:14:10.609Z,1004.43
2016-12-26T09:15:10.630Z,1004.42
2016-12-26T09:16:10.644Z,1004.43
2016-12-26T09:17:10.663Z,1004.46
2016-12-26T09:18:10.677Z,1004.45
2016-12-26T09:19:10.694Z,1004.51
2016-12-26T09:20:10.710Z,1004.52
2016-12-26T09:21:10.731Z,1004.54
2016-12-26T09:22:10.745Z,1004.51
2016-12-26T09:23:10.764Z,1004.52
2016-12-26T09:24:10.780Z,1004.73
2016-12-26T09:25:10.798Z,1005
2016-12-26T09:26:10.815Z,1005.65
2016-12-26T09:27:10.832Z,1005.93
2016-12-26T09:28:10.845Z,1005.69
2016-12-26T09:29:10.863Z,1005.9
2016-12-26T09:30:10.880Z,1005.95
2016-12-26T09:31:10.893Z,1005.83
2016-12-26T09:32:10.913Z,1005.87
2016-12-26T09:33:10.927Z,1005.61
2016-12-26T09:34:10.944Z,1005.86
2016-12-26T09:35:10.960Z,1005.93
2016-12-26T09:36:10.977Z,1005.88
2016-12-26T09:37:10.991Z,1005.88
2016-12-26T09:38:11.007Z,1006.03
2016-12-26T09:39:11.020Z,1006.08
2016-12-26T09:40:11.038Z,1006.06
2016-12-26T09:41:11.055Z,1006.1
2016-12-26T09:42:11.070Z,1006.14
2016-12-26T09:43:11.087Z,1006.21
2016-12-26T09:44:11.100Z,1006.3
2016-12-26T09:45:11.117Z,1006.16
2016-12-26T09:46:11.133Z,1006.21
2016-12-26T09:47:11.150Z,1006.33
2016-12-26T09:48:11.162Z,1006.2
2016-12-26T09:49:11.181Z,1006.64
2016-12-26T09:50:11.192Z,1006.28
2016-12-26T09:51:11.211Z,1006.33
2016-12-26T09:52:11.227Z,1006.31
2016-12-26T09:53:11.240Z,1006.39
2016-12-26T09:54:11.256Z,1006.41
2016-12-26T09:55:11.268Z,1006.78
2016-12-26T09:56:11.283Z,1006.44
2016-12-26T09:57:11.300Z,1006.66
2016-12-26T09:58:11.368Z,1006.63
2016-12-26T09:59:11.330Z,1006.74
2016-12-26T10:00:11.344Z,1006.65
2016-12-26T10:01:11.361Z,1006.67
2016-12-26T10:02:11.378Z,1006.76
2016-12-26T10:03:11.395Z,1006.84
2016-12-26T10:04:11.404Z,1006.8
2016-12-26T10:05:11.421Z,1006.89
2016-12-26T10:06:11.437Z,1006.88
2016-12-26T10:07:11.450Z,1006.91
2016-12-26T10:08:11.467Z,1006.98
2016-12-26T10:09:11.481Z,1007.07
2016-12-26T10:10:11.497Z,1007.04
2016-12-26T10:11:11.513Z,1007.16
2016-12-26T10:12:11.524Z,1007.16
2016-12-26T10:13:11.542Z,1007.22
2016-12-26T10:14:11.560Z,1007.15
2016-12-26T10:15:11.571Z,1007.21
2016-12-26T10:16:11.587Z,1007.21
2016-12-26T10:17:11.603Z,1007.23
2016-12-26T10:18:11.620Z,1007.42
2016-12-26T10:19:11.630Z,1007.32
2016-12-26T10:20:11.651Z,1007.26
2016-12-26T10:21:11.666Z,1007.55
2016-12-26T10:22:11.681Z,1007.6
2016-12-26T10:23:11.696Z,1007.49
2016-12-26T10:24:11.707Z,1007.54
2016-12-26T10:25:11.724Z,1007.48
2016-12-26T10:26:11.739Z,1007.6
2016-12-26T10:27:11.756Z,1007.63
2016-12-26T10:28:11.770Z,1007.62
2016-12-26T10:29:11.785Z,1007.71
2016-12-26T10:30:11.798Z,1007.78
2016-12-26T10:31:11.815Z,1007.84
2016-12-26T10:32:11.830Z,1007.94
2016-12-26T10:33:11.843Z,1007.91
2016-12-26T10:34:11.860Z,1007.92
2016-12-26T10:35:11.876Z,1007.97
2016-12-26T10:36:11.886Z,1007.96
2016-12-26T10:37:11.903Z,1008.01
2016-12-26T10:38:11.920Z,1008.01
2016-12-26T10:39:11.936Z,1008.04
2016-12-26T10:40:11.949Z,1008.16
2016-12-26T10:41:11.963Z,1008.11
2016-12-26T10:42:11.982Z,1008.08
2016-12-26T10:43:11.994Z,1008.12
2016-12-26T10:44:12.008Z,1008.19
2016-12-26T10:45:12.023Z,1008.21
2016-12-26T10:46:12.041Z,1008.24
2016-12-26T10:47:12.056Z,1008.34
2016-12-26T10:48:12.070Z,1008.13
2016-12-26T10:49:12.086Z,1008.36
2016-12-26T10:50:12.103Z,1008.22
2016-12-26T10:51:12.112Z,1008.22
2016-12-26T10:52:12.131Z,1008.26
2016-12-26T10:53:12.143Z,1008.3
2016-12-26T10:54:12.159Z,1008.26
2016-12-26T10:55:12.174Z,1008.28
2016-12-26T10:56:12.191Z,1008.35
2016-12-26T10:57:12.202Z,1008.32
2016-12-26T10:58:12.222Z,1008.34
2016-12-26T10:59:12.233Z,1008.33
2016-12-26T11:00:12.244Z,1008.33
2016-12-26T11:01:12.261Z,1008.41
2016-12-26T11:02:12.278Z,1008.37
2016-12-26T11:03:12.294Z,1008.45
2016-12-26T11:04:12.307Z,1008.29
2016-12-26T11:05:12.324Z,1008.48
2016-12-26T11:06:12.335Z,1008.42
2016-12-26T11:07:12.355Z,1008.33
2016-12-26T11:08:12.371Z,1008.28
2016-12-26T11:09:12.386Z,1008.27
2016-12-26T11:10:12.394Z,1008.29
2016-12-26T11:11:12.415Z,1008.24
2016-12-26T11:12:12.427Z,1008.1
2016-12-26T11:13:12.446Z,1008.25
2016-12-26T11:14:12.457Z,1008.19
2016-12-26T11:15:12.471Z,1008.27
2016-12-26T11:16:12.484Z,1008.23
2016-12-26T11:17:12.500Z,1008.31
2016-12-26T11:18:12.518Z,1008.18
2016-12-26T11:19:12.533Z,1008.19
2016-12-26T11:20:12.545Z,1008.05
2016-12-26T11:21:12.564Z,1008.04
2016-12-26T11:22:12.577Z,1008.04
2016-12-26T11:23:12.593Z,1007.99
2016-12-26T11:24:12.604Z,1008.03
2016-12-26T11:25:12.624Z,1007.97
2016-12-26T11:26:12.636Z,1007.97
2016-12-26T11:27:12.654Z,1007.85
2016-12-26T11:28:12.672Z,1007.84
2016-12-26T11:29:12.684Z,1007.87
2016-12-26T11:30:12.696Z,1007.88
2016-12-26T11:31:12.715Z,1007.91
2016-12-26T11:32:12.723Z,1007.91
2016-12-26T11:33:12.744Z,1007.92
2016-12-26T11:34:12.757Z,1007.9
2016-12-26T11:35:12.773Z,1008.03
2016-12-26T11:36:12.786Z,1008.02
2016-12-26T11:37:12.800Z,1008.05
2016-12-26T11:38:12.818Z,1008.08
2016-12-26T11:39:12.834Z,1008.02
2016-12-26T11:40:12.850Z,1008.08
2016-12-26T11:41:12.860Z,1008.03
2016-12-26T11:42:12.880Z,1007.95
2016-12-26T11:43:12.890Z,1007.93
2016-12-26T11:44:12.910Z,1007.95
2016-12-26T11:45:12.925Z,1007.96
2016-12-26T11:46:12.941Z,1007.99
2016-12-26T11:47:12.954Z,1008.03
2016-12-26T11:48:12.969Z,1008.01
2016-12-26T11:49:12.988Z,1007.95
2016-12-26T11:50:12.996Z,1007.94
2016-12-26T11:51:13.014Z,1008.03
2016-12-26T11:52:13.030Z,1007.97
2016-12-26T11:53:13.044Z,1007.93
2016-12-26T11:54:13.062Z,1007.93
2016-12-26T11:55:13.073Z,1007.94
2016-12-26T11:56:13.094Z,1007.93
2016-12-26T11:57:13.106Z,1007.92
2016-12-26T11:58:13.123Z,1007.89
2016-12-26T11:59:13.139Z,1007.98
2016-12-26T12:00:13.150Z,1008.02
2016-12-26T12:01:13.169Z,1008.01
2016-12-26T12:02:13.181Z,1008
2016-12-26T12:03:13.200Z,1007.94
2016-12-26T12:04:13.213Z,1008.04
2016-12-26T12:05:13.231Z,1008.02
2016-12-26T12:06:13.247Z,1008.04
2016-12-26T12:07:13.260Z,1008.11
2016-12-26T12:08:13.276Z,1008.07
2016-12-26T12:09:13.290Z,1008.01